Paros, Greece
Current Conditions -  °F | °C
As of 6:50 AM on Monday 20 Oct 2014 (Local Time) from LGPA Reporting Station
Few Clouds Few Clouds  
Wind Chill: 61°   Ceiling: Unl
Heat Index: 61°   Visibility: 6mi
Dew Point: 48°   Wind: 14mph
Humidity: 63%   Direction: 40°NE
Pressure: 30.15"   Gusts: NA
Location:  37.08°N, 25.15°E
Report Text: LGPA 200350Z 04012KT 9999 FEW030 16/09 Q1021
Loading
Personal Weather Stations






























Interactive Weather Map
Tropical Storm Tracking
New forecast layout! Learn more

10-Day Weather Forecast

Advertisements
Track Severe Weather on mobile